createdAt,value
2023-02-22T00:00:42.625Z,8.54
2023-02-22T00:03:12.656Z,8.52
2023-02-22T00:05:40.444Z,8.53
2023-02-22T00:08:10.261Z,8.51
2023-02-22T00:10:39.540Z,8.50
2023-02-22T00:13:10.040Z,8.49
2023-02-22T00:15:41.312Z,8.48
2023-02-22T00:18:14.014Z,8.48
2023-02-22T00:20:42.032Z,8.47
2023-02-22T00:23:16.231Z,8.46
2023-02-22T00:25:45.636Z,8.45
2023-02-22T00:28:15.120Z,8.42
2023-02-22T00:30:43.795Z,8.42
2023-02-22T00:33:13.348Z,8.39
2023-02-22T00:35:45.660Z,8.38
2023-02-22T00:38:18.331Z,8.37
2023-02-22T00:40:49.122Z,8.34
2023-02-22T00:43:18.331Z,8.34
2023-02-22T00:45:46.134Z,8.34
2023-02-22T00:48:13.835Z,8.33
2023-02-22T00:50:41.746Z,8.32
2023-02-22T00:53:10.396Z,8.28
2023-02-22T00:55:39.867Z,8.26
2023-02-22T00:58:10.272Z,8.22
2023-02-22T01:00:40.329Z,8.20
2023-02-22T01:03:10.600Z,8.16
2023-02-22T01:05:39.105Z,8.14
2023-02-22T01:08:09.397Z,8.11
2023-02-22T01:10:38.471Z,8.08
2023-02-22T01:13:11.949Z,8.05
2023-02-22T01:15:42.962Z,8.02
2023-02-22T01:18:12.510Z,7.99
2023-02-22T01:20:41.767Z,7.94
2023-02-22T01:23:10.995Z,7.91
2023-02-22T01:25:39.274Z,7.88
2023-02-22T01:28:10.513Z,7.84
2023-02-22T01:30:38.406Z,7.81
2023-02-22T01:33:08.211Z,7.76
2023-02-22T01:35:38.409Z,7.74
2023-02-22T01:38:09.269Z,7.72
2023-02-22T01:40:41.750Z,7.70
2023-02-22T01:43:20.840Z,7.68
2023-02-22T01:46:01.274Z,7.68
2023-02-22T01:48:39.537Z,7.71
2023-02-22T01:51:11.842Z,7.70
2023-02-22T01:53:44.975Z,7.74
2023-02-22T01:56:15.854Z,7.78
2023-02-22T01:58:50.490Z,7.78
2023-02-22T02:01:20.868Z,7.81
2023-02-22T02:03:49.214Z,7.82
2023-02-22T02:06:20.630Z,7.78
2023-02-22T02:08:55.914Z,7.78
2023-02-22T02:11:26.366Z,7.79
2023-02-22T02:13:57.553Z,7.73
2023-02-22T02:16:35.552Z,7.70
2023-02-22T02:19:10.257Z,7.68
2023-02-22T02:22:06.151Z,7.72
2023-02-22T02:25:11.267Z,7.71
2023-02-22T02:28:00.300Z,7.76
2023-02-22T02:31:24.327Z,7.73
2023-02-22T02:33:59.890Z,7.69
2023-02-22T02:36:33.805Z,7.68
2023-02-22T02:39:10.130Z,7.68
2023-02-22T02:41:41.123Z,7.70
2023-02-22T02:44:14.126Z,7.72
2023-02-22T02:46:50.406Z,7.75
2023-02-22T02:49:28.007Z,7.73
2023-02-22T02:51:58.319Z,7.70
2023-02-22T02:54:29.247Z,7.72
2023-02-22T02:56:58.331Z,7.69
2023-02-22T02:59:29.463Z,7.67
2023-02-22T03:02:12.698Z,7.69
2023-02-22T03:04:54.261Z,7.64
2023-02-22T03:07:58.593Z,7.63
2023-02-22T03:10:42.367Z,7.61
2023-02-22T03:13:18.316Z,7.57
2023-02-22T03:15:54.970Z,7.58
2023-02-22T03:18:29.918Z,7.57
2023-02-22T03:21:09.255Z,7.54
2023-02-22T03:23:44.619Z,7.55
2023-02-22T03:26:16.326Z,7.52
2023-02-22T03:28:51.327Z,7.52
2023-02-22T03:31:24.307Z,7.53
2023-02-22T03:33:57.339Z,7.53
2023-02-22T03:36:32.267Z,7.64
2023-02-22T03:39:04.202Z,7.52
2023-02-22T03:41:38.537Z,7.48
2023-02-22T03:44:14.271Z,7.45
2023-02-22T03:46:45.259Z,7.46
2023-02-22T03:49:17.791Z,7.44
2023-02-22T03:51:48.267Z,7.38
2023-02-22T03:54:20.275Z,7.43
2023-02-22T03:56:54.272Z,7.38
2023-02-22T03:59:47.879Z,7.27
2023-02-22T04:02:18.886Z,7.23
2023-02-22T04:04:47.005Z,7.26
2023-02-22T04:07:17.282Z,7.13
2023-02-22T04:09:45.342Z,7.16
2023-02-22T04:12:13.198Z,7.07
2023-02-22T04:14:55.347Z,7.04
2023-02-22T04:17:25.266Z,7.04
2023-02-22T04:23:01.908Z,6.98
2023-02-22T04:25:30.520Z,6.95
2023-02-22T04:27:58.461Z,6.86
2023-02-22T04:30:41.483Z,6.82
2023-02-22T04:33:40.281Z,6.81
2023-02-22T04:36:14.285Z,6.80
2023-02-22T04:38:44.322Z,6.85
2023-02-22T04:41:15.616Z,6.83
2023-02-22T04:43:44.662Z,6.79
2023-02-22T04:46:20.948Z,6.78
2023-02-22T04:48:50.265Z,6.77
2023-02-22T04:51:22.290Z,6.77
2023-02-22T04:54:03.290Z,6.76
2023-02-22T04:56:33.226Z,6.77
2023-02-22T04:59:26.409Z,6.68
2023-02-22T05:02:00.683Z,6.68
2023-02-22T05:04:53.437Z,6.64
2023-02-22T05:07:21.811Z,6.64
2023-02-22T05:09:51.272Z,6.57
2023-02-22T05:12:18.850Z,6.53
2023-02-22T05:14:46.410Z,6.51
2023-02-22T05:17:14.305Z,6.50
2023-02-22T05:19:43.309Z,6.48
2023-02-22T05:22:10.854Z,6.50
2023-02-22T05:24:38.655Z,6.48
2023-02-22T05:27:09.271Z,6.47
2023-02-22T05:29:38.476Z,6.47
2023-02-22T05:32:06.699Z,6.44
2023-02-22T05:34:59.624Z,6.46
2023-02-22T05:37:54.260Z,6.45
2023-02-22T05:40:27.539Z,6.45
2023-02-22T05:42:57.595Z,6.47
2023-02-22T05:45:30.289Z,6.49
2023-02-22T05:47:59.337Z,6.42
2023-02-22T05:50:52.598Z,6.41
2023-02-22T05:53:21.362Z,6.40
2023-02-22T05:56:15.448Z,6.37
2023-02-22T05:58:45.185Z,6.36
2023-02-22T06:01:14.685Z,6.36
2023-02-22T06:03:42.878Z,6.35
2023-02-22T06:06:12.272Z,6.36
2023-02-22T06:08:40.324Z,6.34
2023-02-22T06:11:09.563Z,6.33
2023-02-22T06:13:39.407Z,6.32
2023-02-22T06:16:09.266Z,6.31
2023-02-22T06:18:40.328Z,6.29
2023-02-22T06:21:10.270Z,6.27
2023-02-22T06:23:37.820Z,6.25
2023-02-22T06:26:06.360Z,6.24
2023-02-22T06:28:33.898Z,6.20
2023-02-22T06:31:01.757Z,6.15
2023-02-22T06:33:31.318Z,6.13
2023-02-22T06:35:58.898Z,6.04
2023-02-22T06:38:27.604Z,6.01
2023-02-22T06:40:56.192Z,6.01
2023-02-22T06:43:25.258Z,5.99
2023-02-22T06:45:53.435Z,5.98
2023-02-22T06:48:21.328Z,5.99
2023-02-22T06:50:51.324Z,5.97
2023-02-22T06:53:19.001Z,5.98
2023-02-22T06:55:48.281Z,5.98
2023-02-22T06:58:16.788Z,5.98
2023-02-22T07:00:44.533Z,5.94
2023-02-22T07:03:14.295Z,5.94
2023-02-22T07:05:41.971Z,5.96
2023-02-22T07:08:12.065Z,5.86
2023-02-22T07:10:40.981Z,5.87
2023-02-22T07:13:09.515Z,5.79
2023-02-22T07:15:37.205Z,5.71
2023-02-22T07:18:05.538Z,5.67
2023-02-22T07:20:33.827Z,5.66
2023-02-22T07:23:02.114Z,5.62
2023-02-22T07:25:31.453Z,5.64
2023-02-22T07:27:59.583Z,5.58
2023-02-22T07:30:32.409Z,5.55
2023-02-22T07:33:04.310Z,5.55
2023-02-22T07:35:36.557Z,5.57
2023-02-22T07:38:06.265Z,5.56
2023-02-22T07:40:39.308Z,5.53
2023-02-22T07:43:16.346Z,5.56
2023-02-22T07:45:44.539Z,5.54
2023-02-22T07:48:16.857Z,5.57
2023-02-22T07:50:47.574Z,5.60
2023-02-22T07:53:18.460Z,5.64
2023-02-22T07:55:52.306Z,5.63
2023-02-22T07:58:23.155Z,5.63
2023-02-22T08:00:50.763Z,5.64
2023-02-22T08:03:21.291Z,5.57
2023-02-22T08:05:52.396Z,5.56
2023-02-22T08:08:20.842Z,5.59
2023-02-22T08:10:51.298Z,5.63
2023-02-22T08:13:20.061Z,5.66
2023-02-22T08:15:48.313Z,5.65
2023-02-22T08:18:20.265Z,5.61
2023-02-22T08:20:50.283Z,5.65
2023-02-22T08:23:19.704Z,5.64
2023-02-22T08:25:47.374Z,5.65
2023-02-22T08:28:19.835Z,5.65
2023-02-22T08:30:47.513Z,5.66
2023-02-22T08:33:19.189Z,5.67
2023-02-22T08:35:49.314Z,5.69
2023-02-22T08:38:20.226Z,5.68
2023-02-22T08:40:49.497Z,5.69
2023-02-22T08:43:18.533Z,5.72
2023-02-22T08:45:46.797Z,5.72
2023-02-22T08:48:16.322Z,5.80
2023-02-22T08:50:44.196Z,5.78
2023-02-22T08:53:14.278Z,5.81
2023-02-22T08:55:43.043Z,5.87
2023-02-22T08:58:10.910Z,5.89
2023-02-22T09:00:41.096Z,5.91
2023-02-22T09:03:11.777Z,6.03
2023-02-22T09:05:42.328Z,6.02
2023-02-22T09:08:12.278Z,6.09
2023-02-22T09:10:40.916Z,6.16
2023-02-22T09:16:01.912Z,6.18
2023-02-22T09:18:42.424Z,6.23
2023-02-22T09:21:12.831Z,6.30
2023-02-22T09:23:41.440Z,6.35
2023-02-22T09:26:10.778Z,6.39
2023-02-22T09:28:39.288Z,6.54
2023-02-22T09:31:08.878Z,6.55
2023-02-22T09:33:37.278Z,6.65
2023-02-22T09:36:06.818Z,6.65
2023-02-22T09:38:34.429Z,6.82
2023-02-22T09:41:13.971Z,6.74
2023-02-22T09:43:49.285Z,6.79
2023-02-22T09:46:31.644Z,6.77
2023-02-22T09:49:05.360Z,6.84
2023-02-22T09:51:42.687Z,6.92
2023-02-22T09:54:20.574Z,6.94
2023-02-22T09:56:51.278Z,6.97
2023-02-22T09:59:26.833Z,7.04
2023-02-22T10:02:01.589Z,7.07
2023-02-22T10:04:42.268Z,7.19
2023-02-22T10:07:19.195Z,7.28
2023-02-22T10:09:50.275Z,7.37
2023-02-22T10:12:52.239Z,7.45
2023-02-22T10:15:52.379Z,7.53
2023-02-22T10:18:37.170Z,7.57
2023-02-22T10:21:11.967Z,7.61
2023-02-22T10:36:18.240Z,8.12
2023-02-22T10:38:54.223Z,8.22
2023-02-22T10:41:27.878Z,8.29
2023-02-22T10:43:56.514Z,8.33
2023-02-22T10:46:27.608Z,8.45
2023-02-22T10:49:00.300Z,8.50
2023-02-22T10:51:30.408Z,8.66
2023-02-22T10:54:12.019Z,8.75
2023-02-22T10:56:48.492Z,8.78
2023-02-22T10:59:28.939Z,8.90
2023-02-22T11:01:58.295Z,8.96
2023-02-22T11:07:24.443Z,9.19
2023-02-22T11:10:02.620Z,9.22
2023-02-22T11:20:50.705Z,9.53
2023-02-22T11:23:24.677Z,9.59
2023-02-22T11:26:05.430Z,9.67
2023-02-22T11:28:34.531Z,9.81
2023-02-22T11:31:14.367Z,9.84
2023-02-22T11:36:33.297Z,10.01
2023-02-22T11:39:11.450Z,10.11
2023-02-22T11:41:39.150Z,10.21
2023-02-22T11:44:23.997Z,10.24
2023-02-22T11:46:55.564Z,10.30
2023-02-22T11:49:33.956Z,10.40
2023-02-22T11:52:21.115Z,10.51
2023-02-22T11:55:03.373Z,10.61
2023-02-22T11:57:50.335Z,10.63
2023-02-22T12:00:25.426Z,10.73
2023-02-22T12:03:29.370Z,10.75
2023-02-22T12:06:19.380Z,10.83
2023-02-22T12:09:01.534Z,10.93
2023-02-22T12:12:08.476Z,11.00
2023-02-22T12:14:48.348Z,11.02
2023-02-22T12:17:48.220Z,11.07
2023-02-22T12:20:37.173Z,11.10
2023-02-22T12:23:15.350Z,11.13
2023-02-22T12:25:58.533Z,11.18
2023-02-22T12:28:35.469Z,11.26
2023-02-22T12:31:17.783Z,11.29
2023-02-22T12:33:54.010Z,11.34
2023-02-22T12:36:26.508Z,11.38
2023-02-22T12:39:07.084Z,11.44
2023-02-22T12:41:43.396Z,11.54
2023-02-22T12:44:23.115Z,11.57
2023-02-22T12:46:53.385Z,11.61
2023-02-22T12:49:30.351Z,11.74
2023-02-22T12:52:29.074Z,11.79
2023-02-22T12:58:03.313Z,11.91
2023-02-22T13:00:40.933Z,12.00
2023-02-22T13:03:33.323Z,12.08
2023-02-22T13:06:18.554Z,12.06
2023-02-22T13:09:01.966Z,12.10
2023-02-22T13:11:34.476Z,12.20
2023-02-22T13:14:17.589Z,12.19
2023-02-22T13:16:53.399Z,12.26
2023-02-22T13:19:39.279Z,12.28
2023-02-22T13:22:11.789Z,12.33
2023-02-22T13:24:49.625Z,12.34
2023-02-22T13:27:22.695Z,12.38
2023-02-22T13:29:55.234Z,12.39
2023-02-22T13:32:38.903Z,12.46
2023-02-22T13:35:35.600Z,12.48
2023-02-22T13:38:21.826Z,12.48
2023-02-22T13:41:05.480Z,12.54
2023-02-22T13:43:53.224Z,12.62
2023-02-22T13:47:07.050Z,12.63
2023-02-22T13:49:53.135Z,12.69
2023-02-22T13:52:23.261Z,12.68
2023-02-22T13:54:54.554Z,12.72
2023-02-22T13:57:25.111Z,12.81
2023-02-22T14:00:22.855Z,12.89
2023-02-22T14:03:00.852Z,12.88
2023-02-22T14:05:56.717Z,12.92
2023-02-22T14:08:42.110Z,12.96
2023-02-22T14:11:58.305Z,13.02
2023-02-22T14:15:28.125Z,13.01
2023-02-22T14:18:00.814Z,13.04
2023-02-22T14:20:35.138Z,13.07
2023-02-22T14:23:30.775Z,13.12
2023-02-22T14:26:12.473Z,13.09
2023-02-22T14:28:55.309Z,13.10
2023-02-22T14:31:37.380Z,13.12
2023-02-22T14:34:11.412Z,13.14
2023-02-22T14:36:50.753Z,13.14
2023-02-22T14:39:49.405Z,13.20
2023-02-22T14:42:27.348Z,13.17
2023-02-22T14:45:00.568Z,13.17
2023-02-22T14:47:31.802Z,13.18
2023-02-22T14:50:06.288Z,13.19
2023-02-22T14:52:37.525Z,13.19
2023-02-22T14:55:20.310Z,13.19
2023-02-22T14:58:01.467Z,13.20
2023-02-22T15:00:41.038Z,13.20
2023-02-22T15:03:19.191Z,13.21
2023-02-22T15:05:46.805Z,13.20
2023-02-22T15:08:17.581Z,13.22
2023-02-22T15:10:48.229Z,13.21
2023-02-22T15:13:20.389Z,13.20
2023-02-22T15:15:55.509Z,13.21
2023-02-22T15:18:29.157Z,13.19
2023-02-22T15:23:53.581Z,13.18
2023-02-22T15:26:28.389Z,13.17
2023-02-22T15:28:58.384Z,13.19
2023-02-22T15:31:30.812Z,13.18
2023-02-22T15:34:09.786Z,13.17
2023-02-22T15:36:41.287Z,13.15
2023-02-22T15:39:20.190Z,13.13
2023-02-22T15:41:49.300Z,13.13
2023-02-22T15:44:23.603Z,13.12
2023-02-22T15:46:54.327Z,13.10
2023-02-22T15:49:24.424Z,13.06
2023-02-22T15:52:05.318Z,13.02
2023-02-22T15:54:41.156Z,12.98
2023-02-22T15:57:10.338Z,12.96
2023-02-22T15:59:50.405Z,12.94
2023-02-22T16:02:37.958Z,12.92
2023-02-22T16:05:08.863Z,12.89
2023-02-22T16:07:45.879Z,12.83
2023-02-22T16:10:23.379Z,12.79
2023-02-22T16:13:04.315Z,12.76
2023-02-22T16:15:33.409Z,12.71
2023-02-22T16:18:31.307Z,12.66
2023-02-22T16:21:24.717Z,12.60
2023-02-22T16:24:01.375Z,12.57
2023-02-22T16:26:36.303Z,12.51
2023-02-22T16:29:07.259Z,12.47
2023-02-22T16:31:38.451Z,12.43
2023-02-22T16:34:07.991Z,12.39
2023-02-22T16:36:41.371Z,12.35
2023-02-22T16:39:13.903Z,12.28
2023-02-22T16:41:42.870Z,12.25
2023-02-22T16:44:13.388Z,12.19
2023-02-22T16:46:41.792Z,12.15
2023-02-22T16:49:10.984Z,12.09
2023-02-22T16:51:42.318Z,12.03
2023-02-22T16:54:14.049Z,11.97
2023-02-22T16:56:42.141Z,11.91
2023-02-22T16:59:14.886Z,11.86
2023-02-22T17:01:43.384Z,11.81
2023-02-22T17:04:15.384Z,11.74
2023-02-22T17:06:44.384Z,11.70
2023-02-22T17:09:12.312Z,11.63
2023-02-22T17:11:40.502Z,11.57
2023-02-22T17:14:37.328Z,11.50
2023-02-22T17:17:09.019Z,11.42
2023-02-22T17:19:37.785Z,11.35
2023-02-22T17:22:09.110Z,11.30
2023-02-22T17:24:39.093Z,11.24
2023-02-22T17:27:06.652Z,11.17
2023-02-22T17:29:34.181Z,11.11
2023-02-22T17:32:04.327Z,11.06
2023-02-22T17:34:35.972Z,11.00
2023-02-22T17:37:04.730Z,10.92
2023-02-22T17:39:33.405Z,10.86
2023-02-22T17:42:01.098Z,10.78
2023-02-22T17:44:29.983Z,10.72
2023-02-22T17:46:57.552Z,10.65
2023-02-22T17:49:27.433Z,10.56
2023-02-22T17:51:55.481Z,10.50
2023-02-22T17:54:23.141Z,10.43
2023-02-22T17:56:50.910Z,10.37
2023-02-22T17:59:18.538Z,10.30
2023-02-22T18:01:46.370Z,10.24
2023-02-22T18:04:13.942Z,10.18
2023-02-22T18:06:43.085Z,10.12
2023-02-22T18:09:11.315Z,10.07
2023-02-22T18:11:40.671Z,10.02
2023-02-22T18:14:10.567Z,9.98
2023-02-22T18:16:39.302Z,9.93
2023-02-22T18:24:33.034Z,9.73
2023-02-22T18:27:06.836Z,9.63
2023-02-22T18:29:35.116Z,9.56
2023-02-22T18:32:02.819Z,9.51
2023-02-22T18:34:32.897Z,9.44
2023-02-22T18:37:00.963Z,9.39
2023-02-22T18:39:33.667Z,9.32
2023-02-22T18:42:01.921Z,9.26
2023-02-22T18:44:32.405Z,9.21
2023-02-22T18:47:26.688Z,9.13
2023-02-22T18:50:21.391Z,9.08
2023-02-22T18:52:49.711Z,9.02
2023-02-22T18:55:20.983Z,8.96
2023-02-22T18:57:50.636Z,8.91
2023-02-22T19:00:23.120Z,8.83
2023-02-22T19:02:51.956Z,8.79
2023-02-22T19:05:20.068Z,8.75
2023-02-22T19:07:48.293Z,8.70
2023-02-22T19:10:16.387Z,8.67
2023-02-22T19:12:45.688Z,8.63
2023-02-22T19:15:13.303Z,8.58
2023-02-22T19:17:42.824Z,8.54
2023-02-22T19:20:11.343Z,8.49
2023-02-22T19:22:39.245Z,8.46
2023-02-22T19:25:08.143Z,8.42
2023-02-22T19:27:35.696Z,8.39
2023-02-22T19:30:06.349Z,8.34
2023-02-22T19:32:36.513Z,8.30
2023-02-22T19:35:06.922Z,8.28
2023-02-22T19:37:36.486Z,8.24
2023-02-22T19:40:09.026Z,8.21
2023-02-22T19:42:36.590Z,8.17
2023-02-22T19:45:06.031Z,8.13
2023-02-22T19:47:33.720Z,8.09
2023-02-22T19:50:01.645Z,8.06
2023-02-22T19:52:29.571Z,8.03
2023-02-22T19:54:57.152Z,7.99
2023-02-22T19:57:24.868Z,7.95
2023-02-22T19:59:55.350Z,7.94
2023-02-22T20:02:27.389Z,7.92
2023-02-22T20:04:55.323Z,7.89
2023-02-22T20:07:22.885Z,7.87
2023-02-22T20:09:50.468Z,7.84
2023-02-22T20:12:18.043Z,7.83
2023-02-22T20:14:46.173Z,7.81
2023-02-22T20:17:13.752Z,7.80
2023-02-22T20:19:42.997Z,7.78
2023-02-22T20:22:11.625Z,7.77
2023-02-22T20:24:39.302Z,7.76
2023-02-22T20:27:06.989Z,7.77
2023-02-22T20:29:34.573Z,7.78
2023-02-22T20:32:03.764Z,7.79
2023-02-22T20:34:34.328Z,7.81
2023-02-22T20:37:05.366Z,7.83
2023-02-22T20:39:35.348Z,7.84
2023-02-22T20:42:04.587Z,7.85
2023-02-22T20:44:33.369Z,7.87
2023-02-22T20:47:03.345Z,7.88
2023-02-22T20:49:30.969Z,7.90
2023-02-22T20:51:58.993Z,7.92
2023-02-22T20:54:27.961Z,7.92
2023-02-22T20:56:56.755Z,7.98
2023-02-22T21:02:17.414Z,8.06
2023-02-22T21:04:45.347Z,8.11
2023-02-22T21:07:12.928Z,8.16
2023-02-22T21:09:42.224Z,8.23
2023-02-22T21:12:13.401Z,8.27
2023-02-22T21:14:44.068Z,8.34
2023-02-22T21:17:11.697Z,8.38
2023-02-22T21:19:39.297Z,8.42
2023-02-22T21:22:08.209Z,8.44
2023-02-22T21:24:37.232Z,8.47
2023-02-22T21:27:06.954Z,8.50
2023-02-22T21:29:35.599Z,8.52
2023-02-22T21:32:04.481Z,8.55
2023-02-22T21:34:32.221Z,8.57
2023-02-22T21:37:00.409Z,8.59
2023-02-22T21:39:29.018Z,8.63
2023-02-22T21:42:00.549Z,8.65
2023-02-22T21:44:30.293Z,8.66
2023-02-22T21:46:58.103Z,8.68
2023-02-22T21:49:25.863Z,8.70
2023-02-22T21:51:53.762Z,8.70
2023-02-22T21:54:21.516Z,8.71
2023-02-22T21:56:49.521Z,8.71
2023-02-22T21:59:19.983Z,8.71
2023-02-22T22:01:51.103Z,8.71
2023-02-22T22:04:21.341Z,8.72
2023-02-22T22:06:52.166Z,8.72
2023-02-22T22:09:21.725Z,8.73
2023-02-22T22:11:51.424Z,8.72
2023-02-22T22:14:19.691Z,8.72
2023-02-22T22:16:50.317Z,8.72
2023-02-22T22:19:22.677Z,8.71
2023-02-22T22:21:53.382Z,8.71
2023-02-22T22:24:21.832Z,8.71
2023-02-22T22:26:51.323Z,8.70
2023-02-22T22:29:19.180Z,8.69
2023-02-22T22:31:47.536Z,8.69
2023-02-22T22:34:17.264Z,8.68
2023-02-22T22:36:45.450Z,8.67
2023-02-22T22:39:13.863Z,8.67
2023-02-22T22:41:42.274Z,8.66
2023-02-22T22:44:10.180Z,8.66
2023-02-22T22:46:40.832Z,8.66
2023-02-22T22:49:08.951Z,8.66
2023-02-22T22:51:40.732Z,8.67
2023-02-22T22:54:09.262Z,8.68
2023-02-22T22:56:39.160Z,8.68
2023-02-22T22:59:09.485Z,8.69
2023-02-22T23:01:40.328Z,8.72
2023-02-22T23:04:10.353Z,8.73
2023-02-22T23:06:41.552Z,8.73
2023-02-22T23:09:12.062Z,8.74
2023-02-22T23:11:44.183Z,8.75
2023-02-22T23:14:13.745Z,8.75
2023-02-22T23:16:42.600Z,8.77
2023-02-22T23:19:10.885Z,8.77
2023-02-22T23:21:43.131Z,8.78
2023-02-22T23:24:11.987Z,8.80
2023-02-22T23:26:39.900Z,8.81
2023-02-22T23:29:08.620Z,8.82
2023-02-22T23:31:39.480Z,8.82
2023-02-22T23:34:10.968Z,8.82
2023-02-22T23:36:43.401Z,8.83
2023-02-22T23:39:11.928Z,8.84
2023-02-22T23:41:39.517Z,8.85
2023-02-22T23:44:08.506Z,8.85
2023-02-22T23:46:36.670Z,8.85
2023-02-22T23:49:05.546Z,8.86
2023-02-22T23:51:39.120Z,8.85
2023-02-22T23:54:10.153Z,8.86
2023-02-22T23:56:40.229Z,8.86
2023-02-22T23:59:12.700Z,8.86
